Home   Weather   Egypt   Zagazig   Past weeks
Flag for Egypt

Past Weather in Zagazig, Egypt — Yesterday and Last 2 Weeks

Currently: 52 °F. Sunny. (Weather station: Cairo Airport, Egypt). See more current weather

Past Weather in Zagazig — Graph

°F

Zagazig Temperature Yesterday

Maximum temperature yesterday: 72 °F (at 4:00 pm)
Minimum temperature yesterday: 54 °F (at 4:00 am)
Average temperature yesterday: 61 °F

High & Low Weather Summary for the Past Weeks

 TemperatureHumidityPressure
High93 °F (Apr 6, 3:00 pm)88% (Apr 8, 3:30 am)30.24 "Hg (Apr 8, 3:30 am)
Low50 °F (Mar 29, 6:00 am)9% (Apr 5, 3:00 pm)29.80 "Hg (Apr 6, 2:00 pm)
Average65 °F48%30.05 "Hg
* Reported Mar 29 5:00 am — Apr 13 5:30 am, Zagazig. Weather by CustomWeather, © 2021

Note: Actual official high and low records may vary slightly from our data, if they occured in-between our weather recording intervals... More about our weather records

Zagazig Weather History for the Previous 24 Hours

Scroll right to see more
 ConditionsComfort  
Time TempWeatherWind HumidityBarometerVisibility
5:30 am
Tue, Apr 13
52 °FSunny.6 mph72%30.12 "Hg10 mi
5:00 am52 °FClear.7 mph72%30.09 "Hg10 mi
4:30 am52 °FClear.8 mph72%30.09 "Hg10 mi
4:00 am54 °FClear.7 mph72%30.09 "Hg10 mi
3:30 am54 °FClear.8 mph72%30.09 "Hg10 mi
3:00 am54 °FClear.8 mph67%30.09 "Hg10 mi
2:30 am54 °FClear.7 mph72%30.09 "Hg10 mi
2:00 am55 °FClear.8 mph67%30.12 "Hg10 mi
1:30 am55 °FClear.9 mph67%30.12 "Hg10 mi
1:00 am55 °FClear.10 mph67%30.12 "Hg10 mi
12:30 am55 °FClear.12 mph67%30.12 "Hg10 mi
12:00 am57 °FClear.10 mph63%30.12 "Hg10 mi
11:30 pm
Mon, Apr 12
57 °FClear.12 mph63%30.15 "Hg10 mi
11:00 pm57 °FClear.13 mph63%30.15 "Hg10 mi
10:30 pm57 °FClear.14 mph63%30.15 "Hg10 mi
10:00 pm59 °FClear.16 mph55%30.15 "Hg10 mi
9:30 pm59 °FClear.16 mph59%30.15 "Hg10 mi
9:00 pm61 °FClear.17 mph52%30.15 "Hg10 mi
8:30 pm61 °FClear.18 mph52%30.12 "Hg10 mi
8:00 pm63 °FClear.20 mph49%30.12 "Hg10 mi
7:30 pm66 °FClear.13 mph40%30.09 "Hg10 mi
7:00 pm66 °FClear.14 mph43%30.09 "Hg10 mi
6:30 pm68 °FClear.14 mph40%30.09 "Hg10 mi
6:00 pm68 °FSunny.12 mph40%30.09 "Hg10 mi
5:30 pm68 °FSunny.13 mph40%30.07 "Hg10 mi
5:00 pm72 °FSunny.13 mph36%30.07 "Hg10 mi
4:30 pm72 °FScattered clouds.9 mph36%30.07 "HgN/A
4:00 pm72 °FScattered clouds.10 mph36%30.07 "HgN/A
3:30 pm70 °FScattered clouds.8 mph38%30.07 "HgN/A
3:00 pm70 °FScattered clouds.10 mph38%30.07 "HgN/A
2:30 pm70 °FScattered clouds.10 mph38%30.09 "HgN/A
2:00 pm70 °FScattered clouds.12 mph38%30.09 "HgN/A
1:30 pm68 °FScattered clouds.9 mph40%30.09 "HgN/A
1:00 pm68 °FScattered clouds.13 mph40%30.09 "HgN/A
12:30 pm66 °FScattered clouds.7 mph43%30.12 "HgN/A
12:00 pm64 °FScattered clouds.8 mph43%30.12 "HgN/A
11:30 am64 °FScattered clouds.3 mph46%30.12 "HgN/A
11:00 am64 °FScattered clouds.3 mph46%30.12 "HgN/A
10:30 am61 °FScattered clouds.7 mph48%30.15 "HgN/A
10:00 am61 °FScattered clouds.10 mph48%30.15 "HgN/A
9:30 am61 °FScattered clouds.13 mph48%30.15 "HgN/A
9:00 am61 °FScattered clouds.9 mph48%30.15 "HgN/A
8:30 am59 °FScattered clouds.9 mph51%30.15 "HgN/A
8:00 am57 °FScattered clouds.6 mph55%30.15 "HgN/A
7:30 am59 °FSunny.5 mph55%30.15 "Hg10 mi
7:00 am55 °FSunny.6 mph63%30.15 "Hg10 mi
Weather by CustomWeather, © 2021

See weather overview